createdAt,value
2018-12-18T00:02:15.962Z,97.73
2018-12-18T00:04:43.381Z,97.48
2018-12-18T00:07:10.820Z,97.29
2018-12-18T00:09:38.195Z,97.28
2018-12-18T00:12:05.606Z,97.55
2018-12-18T00:14:33.061Z,97.35
2018-12-18T00:17:00.431Z,97.42
2018-12-18T00:19:27.844Z,97.53
2018-12-18T00:21:55.255Z,97.91
2018-12-18T00:24:22.660Z,97.45
2018-12-18T00:26:50.019Z,97.89
2018-12-18T00:29:17.379Z,97.62
2018-12-18T00:31:44.753Z,97.76
2018-12-18T00:34:12.091Z,97.73
2018-12-18T00:36:39.512Z,98.05
2018-12-18T00:39:11.501Z,97.91
2018-12-18T00:41:38.876Z,98.54
2018-12-18T00:44:06.251Z,98.00
2018-12-18T00:49:39.511Z,98.45
2018-12-18T00:52:06.848Z,97.69
2018-12-18T00:54:34.215Z,97.62
2018-12-18T01:03:06.520Z,97.80
2018-12-18T01:05:33.893Z,98.14
2018-12-18T01:08:01.300Z,97.74
2018-12-18T01:10:28.670Z,97.83
2018-12-18T01:12:56.071Z,97.64
2018-12-18T01:15:23.470Z,98.22
2018-12-18T01:17:57.866Z,97.70
2018-12-18T01:20:25.257Z,98.18
2018-12-18T01:22:52.846Z,97.71
2018-12-18T01:25:20.265Z,97.84
2018-12-18T01:27:47.671Z,97.81
2018-12-18T01:30:15.180Z,97.99
2018-12-18T01:32:42.555Z,97.98
2018-12-18T01:35:09.922Z,97.23
2018-12-18T01:37:37.292Z,97.42
2018-12-18T01:40:05.170Z,97.40
2018-12-18T01:42:32.506Z,97.47
2018-12-18T01:44:59.883Z,97.51
2018-12-18T01:47:39.780Z,97.79
2018-12-18T01:50:07.301Z,97.80
2018-12-18T01:52:34.681Z,97.54
2018-12-18T01:55:04.662Z,97.57
2018-12-18T02:03:21.100Z,97.92
2018-12-18T02:05:48.705Z,97.31
2018-12-18T02:08:16.070Z,98.03
2018-12-18T02:10:43.411Z,97.66
2018-12-18T02:13:10.782Z,98.08
2018-12-18T02:15:39.351Z,98.11
2018-12-18T02:18:06.728Z,97.33
2018-12-18T02:20:39.514Z,98.13
2018-12-18T02:23:06.892Z,98.13
2018-12-18T02:25:34.286Z,97.96
2018-12-18T02:28:01.633Z,98.03
2018-12-18T02:30:29.164Z,97.98
2018-12-18T02:32:56.512Z,96.97
2018-12-18T02:35:23.877Z,97.29
2018-12-18T02:37:52.290Z,97.40
2018-12-18T02:40:19.621Z,97.61
2018-12-18T02:42:46.984Z,96.93
2018-12-18T02:45:14.349Z,97.30
2018-12-18T02:47:41.827Z,97.86
2018-12-18T02:50:09.171Z,97.77
2018-12-18T02:52:36.652Z,98.83
2018-12-18T02:55:04.162Z,98.81
2018-12-18T03:06:09.732Z,98.25
2018-12-18T03:08:37.100Z,98.00
2018-12-18T03:11:04.459Z,98.75
2018-12-18T03:13:31.891Z,97.92
2018-12-18T03:15:59.264Z,97.64
2018-12-18T03:18:26.623Z,98.45
2018-12-18T03:20:53.951Z,97.75
2018-12-18T03:23:21.326Z,98.43
2018-12-18T03:25:48.671Z,97.68
2018-12-18T03:28:16.026Z,98.18
2018-12-18T03:30:43.389Z,97.30
2018-12-18T03:33:10.777Z,96.79
2018-12-18T03:35:38.132Z,96.31
2018-12-18T03:38:12.566Z,96.40
2018-12-18T03:40:39.910Z,96.79
2018-12-18T03:43:10.714Z,97.63
2018-12-18T03:45:38.078Z,97.74
2018-12-18T03:48:05.504Z,97.70
2018-12-18T03:50:32.900Z,98.11
2018-12-18T03:53:02.087Z,97.43
2018-12-18T03:55:29.459Z,98.03
2018-12-18T03:57:56.765Z,97.52
2018-12-18T04:00:27.685Z,98.47
2018-12-18T04:03:00.896Z,97.40
2018-12-18T04:05:28.266Z,98.05
2018-12-18T04:08:01.743Z,97.88
2018-12-18T04:10:32.239Z,97.89
2018-12-18T04:12:59.655Z,97.95
2018-12-18T04:15:28.082Z,97.79
2018-12-18T04:17:55.435Z,97.56
2018-12-18T04:20:22.811Z,98.02
2018-12-18T04:22:53.873Z,97.60
2018-12-18T04:25:27.348Z,98.17
2018-12-18T04:27:58.550Z,97.30
2018-12-18T04:30:25.923Z,97.10
2018-12-18T04:32:56.369Z,98.01
2018-12-18T04:35:27.663Z,97.99
2018-12-18T04:37:58.588Z,97.91
2018-12-18T04:40:29.546Z,97.41
2018-12-18T04:42:56.912Z,97.37
2018-12-18T04:45:24.284Z,97.32
2018-12-18T04:47:52.695Z,97.31
2018-12-18T04:50:23.299Z,98.01
2018-12-18T04:52:50.654Z,97.44
2018-12-18T04:55:21.296Z,97.65
2018-12-18T04:58:00.564Z,96.57
2018-12-18T05:00:30.003Z,96.50
2018-12-18T05:03:01.077Z,97.16
2018-12-18T05:05:28.438Z,96.07
2018-12-18T05:07:59.288Z,97.27
2018-12-18T05:10:30.347Z,97.44
2018-12-18T05:12:59.378Z,96.19
2018-12-18T05:15:30.296Z,96.15
2018-12-18T05:18:01.288Z,95.89
2018-12-18T05:20:31.876Z,95.62
2018-12-18T05:23:03.053Z,96.45
2018-12-18T05:25:33.779Z,95.57
2018-12-18T05:28:05.089Z,95.86
2018-12-18T05:30:36.223Z,96.16
2018-12-18T05:33:03.633Z,96.07
2018-12-18T05:35:32.229Z,95.91
2018-12-18T05:38:03.886Z,96.79
2018-12-18T05:40:31.232Z,96.52
2018-12-18T05:42:58.599Z,97.22
2018-12-18T05:45:25.972Z,97.14
2018-12-18T05:47:56.725Z,97.14
2018-12-18T05:50:24.088Z,97.28
2018-12-18T05:52:55.416Z,97.33
2018-12-18T05:55:28.923Z,97.31
2018-12-18T05:57:56.323Z,96.50
2018-12-18T06:00:23.686Z,97.10
2018-12-18T06:02:56.664Z,97.32
2018-12-18T06:05:23.986Z,96.94
2018-12-18T06:07:53.203Z,95.71
2018-12-18T06:10:20.628Z,95.04
2018-12-18T06:12:47.995Z,94.75
2018-12-18T06:15:15.373Z,95.10
2018-12-18T06:17:56.983Z,95.05
2018-12-18T06:20:24.338Z,95.40
2018-12-18T06:22:56.034Z,96.46
2018-12-18T06:25:25.146Z,96.54
2018-12-18T06:27:52.520Z,96.59
2018-12-18T06:30:19.908Z,96.60
2018-12-18T06:32:47.258Z,95.81
2018-12-18T06:35:16.528Z,96.20
2018-12-18T06:37:52.004Z,96.68
2018-12-18T06:40:19.423Z,96.91
2018-12-18T06:42:46.787Z,96.99
2018-12-18T06:45:17.279Z,96.46
2018-12-18T06:51:01.851Z,95.77
2018-12-18T06:53:29.350Z,94.88
2018-12-18T06:56:00.475Z,95.87
2018-12-18T06:58:27.809Z,96.00
2018-12-18T07:00:55.194Z,95.95
2018-12-18T07:03:25.828Z,95.24
2018-12-18T07:05:53.215Z,95.32
2018-12-18T07:08:23.884Z,96.30
2018-12-18T07:10:51.261Z,95.83
2018-12-18T07:13:18.590Z,96.26
2018-12-18T07:15:49.588Z,96.75
2018-12-18T07:18:16.940Z,96.98
2018-12-18T07:20:50.555Z,97.12
2018-12-18T07:23:17.925Z,96.32
2018-12-18T07:25:45.264Z,95.77
2018-12-18T07:28:15.702Z,95.54
2018-12-18T07:30:43.115Z,95.87
2018-12-18T07:33:10.471Z,95.52
2018-12-18T07:35:37.841Z,95.49
2018-12-18T07:38:05.381Z,95.62
2018-12-18T07:40:32.744Z,96.58
2018-12-18T07:43:00.089Z,96.00
2018-12-18T07:45:27.484Z,95.78
2018-12-18T07:47:54.884Z,96.51
2018-12-18T07:50:22.256Z,96.23
2018-12-18T07:52:49.649Z,96.01
2018-12-18T07:55:17.000Z,94.21
2018-12-18T07:57:47.999Z,94.02
2018-12-18T08:00:15.416Z,94.06
2018-12-18T08:02:42.734Z,93.81
2018-12-18T08:05:10.105Z,94.03
2018-12-18T08:07:39.498Z,93.87
2018-12-18T08:10:07.125Z,93.71
2018-12-18T08:12:34.496Z,93.82
2018-12-18T08:15:01.910Z,93.13
2018-12-18T08:17:31.308Z,93.89
2018-12-18T08:19:58.720Z,93.29
2018-12-18T08:22:26.108Z,93.69
2018-12-18T08:24:53.520Z,92.99
2018-12-18T08:27:20.887Z,92.60
2018-12-18T08:29:48.296Z,92.94
2018-12-18T08:32:15.823Z,93.01
2018-12-18T08:34:43.320Z,92.90
2018-12-18T08:37:14.609Z,93.46
2018-12-18T08:39:42.006Z,93.41
2018-12-18T08:42:09.397Z,93.90
2018-12-18T08:44:36.834Z,93.10
2018-12-18T08:50:01.360Z,93.20
2018-12-18T08:52:28.708Z,94.25
2018-12-18T08:54:56.090Z,93.84
2018-12-18T08:57:23.436Z,93.00
2018-12-18T08:59:54.055Z,93.73
2018-12-18T09:02:21.421Z,93.51
2018-12-18T09:04:48.811Z,94.10
2018-12-18T09:07:21.144Z,94.54
2018-12-18T09:09:52.004Z,94.78
2018-12-18T09:12:19.415Z,94.16
2018-12-18T09:14:52.384Z,95.15
2018-12-18T09:17:29.571Z,95.05
2018-12-18T09:19:56.999Z,96.20
2018-12-18T09:22:24.389Z,95.47
2018-12-18T09:24:55.065Z,95.17
2018-12-18T09:27:22.400Z,95.62
2018-12-18T09:29:49.739Z,94.83
2018-12-18T09:32:17.111Z,94.29
2018-12-18T09:34:44.469Z,94.18
2018-12-18T09:37:36.014Z,93.67
2018-12-18T09:40:17.373Z,93.67
2018-12-18T09:42:50.339Z,93.91
2018-12-18T09:45:23.651Z,93.78
2018-12-18T09:47:53.055Z,93.98
2018-12-18T09:50:24.075Z,94.09
2018-12-18T09:52:55.074Z,94.87
2018-12-18T09:55:22.414Z,95.03
2018-12-18T09:57:57.461Z,94.67
2018-12-18T10:00:26.429Z,94.84
2018-12-18T10:02:53.969Z,95.54
2018-12-18T10:05:21.341Z,94.74
2018-12-18T10:07:52.039Z,93.56
2018-12-18T10:10:23.099Z,92.89
2018-12-18T10:12:55.999Z,91.79
2018-12-18T10:15:26.211Z,91.83
2018-12-18T10:17:55.495Z,91.60
2018-12-18T10:20:26.465Z,91.38
2018-12-18T10:22:57.319Z,91.08
2018-12-18T10:25:28.368Z,91.10
2018-12-18T10:27:59.219Z,90.66
2018-12-18T10:30:26.585Z,90.85
2018-12-18T10:32:57.404Z,91.02
2018-12-18T10:35:28.429Z,91.84
2018-12-18T10:37:57.593Z,91.69
2018-12-18T10:40:28.885Z,91.80
2018-12-18T10:42:59.975Z,92.27
2018-12-18T10:45:32.121Z,91.68
2018-12-18T10:48:03.284Z,90.44
2018-12-18T10:50:32.209Z,90.33
2018-12-18T10:53:01.416Z,89.67
2018-12-18T10:55:32.738Z,89.08
2018-12-18T10:58:05.959Z,89.22
2018-12-18T11:00:44.445Z,89.62
2018-12-18T11:03:13.074Z,87.56
2018-12-18T11:05:44.345Z,86.13
2018-12-18T11:08:17.499Z,85.46
2018-12-18T11:10:48.209Z,85.35
2018-12-18T11:13:19.120Z,84.40
2018-12-18T11:15:46.518Z,85.67
2018-12-18T11:18:14.067Z,85.09
2018-12-18T11:20:41.444Z,83.08
2018-12-18T11:23:08.775Z,82.47
2018-12-18T11:25:36.170Z,81.40
2018-12-18T11:28:21.740Z,83.02
2018-12-18T11:30:49.139Z,82.70
2018-12-18T11:33:20.085Z,81.57
2018-12-18T11:35:51.231Z,83.17
2018-12-18T11:38:21.930Z,82.38
2018-12-18T11:40:49.435Z,82.59
2018-12-18T11:43:22.209Z,82.82
2018-12-18T11:45:49.586Z,84.61
2018-12-18T11:48:16.982Z,85.39
2018-12-18T11:50:44.331Z,82.43
2018-12-18T11:53:11.720Z,83.44
2018-12-18T11:55:39.080Z,83.78
2018-12-18T11:58:06.455Z,83.04
2018-12-18T12:00:33.945Z,83.21
2018-12-18T12:03:01.330Z,78.32
2018-12-18T12:05:28.696Z,79.61
2018-12-18T12:07:56.125Z,79.17
2018-12-18T12:10:23.486Z,76.96
2018-12-18T12:12:50.894Z,75.12
2018-12-18T12:15:18.310Z,74.85
2018-12-18T12:17:45.855Z,73.84
2018-12-18T12:20:13.300Z,75.08
2018-12-18T12:22:40.717Z,73.78
2018-12-18T12:25:08.200Z,72.52
2018-12-18T12:27:41.155Z,72.86
2018-12-18T12:30:08.847Z,74.43
2018-12-18T12:32:36.304Z,73.85
2018-12-18T12:35:04.236Z,75.23
2018-12-18T12:37:31.631Z,74.57
2018-12-18T12:39:58.991Z,74.29
2018-12-18T12:42:26.350Z,75.25
2018-12-18T12:44:53.813Z,74.91
2018-12-18T12:47:21.141Z,75.50
2018-12-18T12:49:48.520Z,75.58
2018-12-18T12:52:15.879Z,74.76
2018-12-18T12:54:43.295Z,74.26
2018-12-18T12:57:10.874Z,73.29
2018-12-18T12:59:38.287Z,72.87
2018-12-18T13:02:05.615Z,71.86
2018-12-18T13:04:33.021Z,70.75
2018-12-18T13:07:02.361Z,69.62
2018-12-18T13:09:29.781Z,68.09
2018-12-18T13:11:57.125Z,68.97
2018-12-18T13:14:24.519Z,68.88
2018-12-18T13:16:51.966Z,68.68
2018-12-18T13:19:19.302Z,68.26
2018-12-18T13:21:46.664Z,68.80
2018-12-18T13:24:14.081Z,68.99
2018-12-18T13:26:41.505Z,68.06
2018-12-18T13:29:08.920Z,66.14
2018-12-18T13:31:36.264Z,66.37
2018-12-18T13:34:03.670Z,66.69
2018-12-18T13:36:31.038Z,63.93
2018-12-18T13:38:58.418Z,64.27
2018-12-18T13:41:25.804Z,64.60
2018-12-18T13:43:53.198Z,63.55
2018-12-18T13:46:20.565Z,64.38
2018-12-18T13:48:47.948Z,64.45
2018-12-18T13:51:15.350Z,64.26
2018-12-18T13:53:42.875Z,63.64
2018-12-18T13:56:10.260Z,63.34
2018-12-18T13:58:37.663Z,64.60
2018-12-18T14:01:04.994Z,62.67
2018-12-18T14:03:32.425Z,62.27
2018-12-18T14:05:59.778Z,62.22
2018-12-18T14:08:27.253Z,63.63
2018-12-18T14:10:54.590Z,62.94
2018-12-18T14:13:21.970Z,59.89
2018-12-18T14:15:49.384Z,58.88
2018-12-18T14:18:16.754Z,56.76
2018-12-18T14:20:44.172Z,57.99
2018-12-18T14:23:11.551Z,57.61
2018-12-18T14:25:38.949Z,55.95
2018-12-18T14:28:06.348Z,57.31
2018-12-18T14:30:33.753Z,57.02
2018-12-18T14:33:01.193Z,58.56
2018-12-18T14:35:28.576Z,62.02
2018-12-18T14:37:56.068Z,63.34
2018-12-18T14:40:23.415Z,65.04
2018-12-18T14:42:50.816Z,65.62
2018-12-18T14:45:18.225Z,68.35
2018-12-18T14:47:45.609Z,68.73
2018-12-18T14:50:13.295Z,71.20
2018-12-18T14:52:40.663Z,72.65
2018-12-18T14:55:08.075Z,74.50
2018-12-18T14:57:35.408Z,74.15
2018-12-18T15:00:03.082Z,74.35
2018-12-18T15:02:30.480Z,76.50
2018-12-18T15:05:01.516Z,77.09
2018-12-18T15:07:28.908Z,77.21
2018-12-18T15:09:56.361Z,79.17
2018-12-18T15:12:23.738Z,79.19
2018-12-18T15:14:51.165Z,79.96
2018-12-18T15:17:18.547Z,80.93
2018-12-18T15:19:45.940Z,81.08
2018-12-18T15:22:13.263Z,81.83
2018-12-18T15:24:40.690Z,83.11
2018-12-18T15:27:08.036Z,83.10
2018-12-18T15:29:35.894Z,84.43
2018-12-18T15:32:03.355Z,84.55
2018-12-18T15:34:30.698Z,85.99
2018-12-18T15:36:58.057Z,85.78
2018-12-18T15:39:25.485Z,86.51
2018-12-18T15:41:52.897Z,87.42
2018-12-18T15:44:20.270Z,86.64
2018-12-18T15:46:47.670Z,86.88
2018-12-18T15:49:15.060Z,86.75
2018-12-18T15:51:42.459Z,86.59
2018-12-18T15:54:09.854Z,86.01
2018-12-18T15:56:37.249Z,86.45
2018-12-18T15:59:04.607Z,86.17
2018-12-18T16:01:32.067Z,86.44
2018-12-18T16:03:59.411Z,86.81
2018-12-18T16:06:26.797Z,86.16
2018-12-18T16:08:54.229Z,86.71
2018-12-18T16:11:21.622Z,87.62
2018-12-18T16:13:49.107Z,87.05
2018-12-18T16:16:16.671Z,87.06
2018-12-18T16:18:44.045Z,86.60
2018-12-18T16:21:11.402Z,86.43
2018-12-18T16:23:38.777Z,86.90
2018-12-18T16:26:06.128Z,87.17
2018-12-18T16:28:33.512Z,87.09
2018-12-18T16:31:00.912Z,87.27
2018-12-18T16:33:28.312Z,87.96
2018-12-18T16:35:55.701Z,87.44
2018-12-18T16:38:23.122Z,87.99
2018-12-18T16:40:50.493Z,88.73
2018-12-18T16:43:17.960Z,89.10
2018-12-18T16:45:45.368Z,89.72
2018-12-18T16:48:12.764Z,88.22
2018-12-18T16:50:40.182Z,87.34
2018-12-18T16:53:07.627Z,87.62
2018-12-18T16:55:34.988Z,88.29
2018-12-18T16:58:02.975Z,88.13
2018-12-18T17:00:30.368Z,88.13
2018-12-18T17:02:57.738Z,88.40
2018-12-18T17:05:25.201Z,87.46
2018-12-18T17:07:52.621Z,87.50
2018-12-18T17:10:20.066Z,87.46
2018-12-18T17:12:53.038Z,86.38
2018-12-18T17:15:20.527Z,87.24
2018-12-18T17:17:47.917Z,87.22
2018-12-18T17:20:15.527Z,87.60
2018-12-18T17:22:42.877Z,87.34
2018-12-18T17:25:10.282Z,86.11
2018-12-18T17:27:37.618Z,86.19
2018-12-18T17:30:06.004Z,85.35
2018-12-18T17:32:33.411Z,85.12
2018-12-18T17:35:00.832Z,86.04
2018-12-18T17:37:28.216Z,85.14
2018-12-18T17:39:55.604Z,86.01
2018-12-18T17:42:22.986Z,86.12
2018-12-18T17:44:50.360Z,87.62
2018-12-18T17:47:17.763Z,87.39
2018-12-18T17:49:45.200Z,87.22
2018-12-18T17:52:12.592Z,87.34
2018-12-18T17:54:40.010Z,86.34
2018-12-18T17:57:07.516Z,86.98
2018-12-18T17:59:34.897Z,87.25
2018-12-18T18:02:02.411Z,87.12
2018-12-18T18:04:29.788Z,87.38
2018-12-18T18:06:57.228Z,87.98
2018-12-18T18:09:24.604Z,88.87
2018-12-18T18:11:52.053Z,88.90
2018-12-18T18:14:19.442Z,89.46
2018-12-18T18:16:46.952Z,89.28
2018-12-18T18:19:14.339Z,88.65
2018-12-18T18:21:41.811Z,87.86
2018-12-18T18:24:09.241Z,88.60
2018-12-18T18:26:36.659Z,89.39
2018-12-18T18:29:04.114Z,89.91
2018-12-18T18:31:31.495Z,89.16
2018-12-18T18:33:58.913Z,89.38
2018-12-18T18:36:26.306Z,89.07
2018-12-18T18:38:53.748Z,88.71
2018-12-18T18:41:21.099Z,89.65
2018-12-18T18:43:48.543Z,89.07
2018-12-18T18:46:15.918Z,90.42
2018-12-18T18:48:43.348Z,90.24
2018-12-18T18:51:10.751Z,90.13
2018-12-18T18:53:38.209Z,90.90
2018-12-18T18:56:05.407Z,90.65
2018-12-18T18:58:32.807Z,90.49
2018-12-18T19:01:00.274Z,91.04
2018-12-18T19:03:27.759Z,90.71
2018-12-18T19:05:55.271Z,90.77
2018-12-18T19:08:22.788Z,90.62
2018-12-18T19:10:50.132Z,90.04
2018-12-18T19:13:17.526Z,90.29
2018-12-18T19:15:45.022Z,90.18
2018-12-18T19:18:12.399Z,90.68
2018-12-18T19:20:39.853Z,90.97
2018-12-18T19:23:07.257Z,91.51
2018-12-18T19:25:34.647Z,91.33
2018-12-18T19:28:02.058Z,90.74
2018-12-18T19:30:29.502Z,90.54
2018-12-18T19:32:56.927Z,90.65
2018-12-18T19:35:24.477Z,89.42
2018-12-18T19:37:51.883Z,87.84
2018-12-18T19:40:19.373Z,88.21
2018-12-18T19:42:46.821Z,87.90
2018-12-18T19:45:14.399Z,88.13
2018-12-18T19:47:41.883Z,88.97
2018-12-18T19:50:14.884Z,89.08
2018-12-18T19:52:42.286Z,90.00
2018-12-18T19:55:09.646Z,89.57
2018-12-18T19:57:59.461Z,90.41
2018-12-18T20:00:27.980Z,91.11
2018-12-18T20:02:58.775Z,91.95
2018-12-18T20:05:26.136Z,92.36
2018-12-18T20:07:53.608Z,92.69
2018-12-18T20:10:21.061Z,92.63
2018-12-18T20:12:52.145Z,92.92
2018-12-18T20:15:23.381Z,93.19
2018-12-18T20:17:55.529Z,92.93
2018-12-18T20:20:22.943Z,93.42
2018-12-18T20:22:52.423Z,92.38
2018-12-18T20:25:23.098Z,93.27
2018-12-18T20:27:50.559Z,93.22
2018-12-18T20:30:19.448Z,93.09
2018-12-18T20:32:46.873Z,93.75
2018-12-18T20:35:18.254Z,92.94
2018-12-18T20:37:49.401Z,94.37
2018-12-18T20:41:47.088Z,93.15
2018-12-18T20:44:19.999Z,93.21
2018-12-18T20:46:53.069Z,93.18
2018-12-18T20:49:20.494Z,94.41
2018-12-18T20:51:49.768Z,94.31
2018-12-18T20:54:17.248Z,94.25
2018-12-18T20:56:52.194Z,93.00
2018-12-18T20:59:25.087Z,93.60
2018-12-18T21:01:52.486Z,94.11
2018-12-18T21:04:19.944Z,93.49
2018-12-18T21:06:50.674Z,93.78
2018-12-18T21:09:20.647Z,94.06
2018-12-18T21:11:47.993Z,94.29
2018-12-18T21:19:06.453Z,94.05
2018-12-18T21:21:33.823Z,93.95
2018-12-18T21:24:01.261Z,94.83
2018-12-18T21:26:28.692Z,94.91
2018-12-18T21:28:57.878Z,94.79
2018-12-18T21:31:31.554Z,94.19
2018-12-18T21:34:00.358Z,93.44
2018-12-18T21:36:27.859Z,93.52
2018-12-18T21:38:58.499Z,93.56
2018-12-18T21:41:25.981Z,93.75
2018-12-18T21:43:53.364Z,94.15
2018-12-18T21:46:28.858Z,93.93
2018-12-18T21:49:01.763Z,94.51
2018-12-18T21:51:29.170Z,94.05
2018-12-18T21:53:57.018Z,94.68
2018-12-18T21:56:25.208Z,94.65
2018-12-18T21:58:55.324Z,94.94
2018-12-18T22:01:22.888Z,94.11
2018-12-18T22:03:50.489Z,94.42
2018-12-18T22:06:19.492Z,95.39
2018-12-18T22:08:50.653Z,95.20
2018-12-18T22:11:24.076Z,95.61
2018-12-18T22:13:51.846Z,95.26
2018-12-18T22:16:19.582Z,95.01
2018-12-18T22:18:52.971Z,95.26
2018-12-18T22:21:23.533Z,95.16
2018-12-18T22:23:51.214Z,96.08
2018-12-18T22:26:18.554Z,96.09
2018-12-18T22:28:46.315Z,95.33
2018-12-18T22:31:13.724Z,95.86
2018-12-18T22:33:41.138Z,95.67
2018-12-18T22:36:08.787Z,95.93
2018-12-18T22:38:43.594Z,96.51
2018-12-18T22:41:13.287Z,96.47
2018-12-18T22:43:40.696Z,96.28
2018-12-18T22:46:10.125Z,95.31
2018-12-18T22:48:37.774Z,95.33
2018-12-18T22:51:07.138Z,95.94
2018-12-18T22:53:34.584Z,95.91
2018-12-18T22:56:05.693Z,95.44
2018-12-18T22:58:39.112Z,95.47
2018-12-18T23:01:12.196Z,94.80
2018-12-18T23:03:47.952Z,95.71
2018-12-18T23:06:15.723Z,95.42
2018-12-18T23:08:50.295Z,94.86
2018-12-18T23:11:19.017Z,95.86
2018-12-18T23:13:53.922Z,95.69
2018-12-18T23:16:25.168Z,95.26
2018-12-18T23:18:53.252Z,95.90
2018-12-18T23:21:24.013Z,94.88
2018-12-18T23:23:53.438Z,95.91
2018-12-18T23:26:35.877Z,96.04
2018-12-18T23:29:07.277Z,95.42
2018-12-18T23:31:34.896Z,95.72
2018-12-18T23:34:06.239Z,95.93
2018-12-18T23:36:35.334Z,96.20
2018-12-18T23:39:08.519Z,95.31
2018-12-18T23:41:39.919Z,95.73
2018-12-18T23:44:07.299Z,95.75
2018-12-18T23:46:41.516Z,94.80
2018-12-18T23:49:08.890Z,94.99
2018-12-18T23:51:36.388Z,95.50
2018-12-18T23:54:05.341Z,95.46
2018-12-18T23:56:32.751Z,95.39
2018-12-18T23:59:03.436Z,95.89
